sensor_id;sensor_type;location;lat;lon;timestamp;P1;P2;P0
60245;PMS5003;46107;53.356;-1.524;2023-04-22T00:02:22;50;45;
60245;PMS5003;46107;53.356;-1.524;2023-04-22T00:04:49;53;46;
60245;PMS5003;46107;53.356;-1.524;2023-04-22T00:07:16;42;36;
60245;PMS5003;46107;53.356;-1.524;2023-04-22T00:09:43;39;36;
60245;PMS5003;46107;53.356;-1.524;2023-04-22T00:12:11;39;34;
60245;PMS5003;46107;53.356;-1.524;2023-04-22T00:14:39;47;38;
60245;PMS5003;46107;53.356;-1.524;2023-04-22T00:17:07;45;35;
60245;PMS5003;46107;53.356;-1.524;2023-04-22T00:19:34;37;35;
60245;PMS5003;46107;53.356;-1.524;2023-04-22T00:22:02;34;32;
60245;PMS5003;46107;53.356;-1.524;2023-04-22T00:24:29;44;36;
60245;PMS5003;46107;53.356;-1.524;2023-04-22T00:26:57;40;36;
60245;PMS5003;46107;53.356;-1.524;2023-04-22T00:29:24;37;35;
60245;PMS5003;46107;53.356;-1.524;2023-04-22T00:31:54;35;29;
60245;PMS5003;46107;53.356;-1.524;2023-04-22T00:34:22;33;30;
60245;PMS5003;46107;53.356;-1.524;2023-04-22T00:36:50;32;30;
60245;PMS5003;46107;53.356;-1.524;2023-04-22T00:39:17;32;26;
60245;PMS5003;46107;53.356;-1.524;2023-04-22T00:41:45;26;24;
60245;PMS5003;46107;53.356;-1.524;2023-04-22T00:44:13;32;29;
60245;PMS5003;46107;53.356;-1.524;2023-04-22T00:46:41;35;31;
60245;PMS5003;46107;53.356;-1.524;2023-04-22T00:49:08;33;32;
60245;PMS5003;46107;53.356;-1.524;2023-04-22T00:51:35;31;28;
60245;PMS5003;46107;53.356;-1.524;2023-04-22T00:54:03;37;36;
60245;PMS5003;46107;53.356;-1.524;2023-04-22T00:56:31;40;39;
60245;PMS5003;46107;53.356;-1.524;2023-04-22T00:59:00;36;33;
60245;PMS5003;46107;53.356;-1.524;2023-04-22T01:01:28;37;31;
60245;PMS5003;46107;53.356;-1.524;2023-04-22T01:03:56;39;34;
60245;PMS5003;46107;53.356;-1.524;2023-04-22T01:06:24;36;35;
60245;PMS5003;46107;53.356;-1.524;2023-04-22T01:08:57;38;37;
60245;PMS5003;46107;53.356;-1.524;2023-04-22T01:11:25;45;40;
60245;PMS5003;46107;53.356;-1.524;2023-04-22T01:13:53;41;38;
60245;PMS5003;46107;53.356;-1.524;2023-04-22T01:16:21;42;38;
60245;PMS5003;46107;53.356;-1.524;2023-04-22T01:18:49;36;34;
60245;PMS5003;46107;53.356;-1.524;2023-04-22T01:21:18;46;41;
60245;PMS5003;46107;53.356;-1.524;2023-04-22T01:23:45;39;34;
60245;PMS5003;46107;53.356;-1.524;2023-04-22T01:26:13;40;37;
60245;PMS5003;46107;53.356;-1.524;2023-04-22T01:28:41;42;39;
60245;PMS5003;46107;53.356;-1.524;2023-04-22T01:31:10;43;40;
60245;PMS5003;46107;53.356;-1.524;2023-04-22T01:33:38;41;41;
60245;PMS5003;46107;53.356;-1.524;2023-04-22T01:36:06;40;36;
60245;PMS5003;46107;53.356;-1.524;2023-04-22T01:38:34;52;44;
60245;PMS5003;46107;53.356;-1.524;2023-04-22T01:41:01;40;35;
60245;PMS5003;46107;53.356;-1.524;2023-04-22T01:43:29;46;39;
60245;PMS5003;46107;53.356;-1.524;2023-04-22T01:45:59;48;43;
60245;PMS5003;46107;53.356;-1.524;2023-04-22T01:48:27;53;47;
60245;PMS5003;46107;53.356;-1.524;2023-04-22T01:50:54;47;44;
60245;PMS5003;46107;53.356;-1.524;2023-04-22T01:53:21;47;40;
60245;PMS5003;46107;53.356;-1.524;2023-04-22T01:55:48;48;42;
60245;PMS5003;46107;53.356;-1.524;2023-04-22T01:58:16;53;42;
60245;PMS5003;46107;53.356;-1.524;2023-04-22T02:00:44;50;45;
60245;PMS5003;46107;53.356;-1.524;2023-04-22T02:03:12;50;44;
60245;PMS5003;46107;53.356;-1.524;2023-04-22T02:05:40;54;51;
60245;PMS5003;46107;53.356;-1.524;2023-04-22T02:08:07;50;47;
60245;PMS5003;46107;53.356;-1.524;2023-04-22T02:10:34;45;37;
60245;PMS5003;46107;53.356;-1.524;2023-04-22T02:13:02;45;43;
60245;PMS5003;46107;53.356;-1.524;2023-04-22T02:15:29;43;37;
60245;PMS5003;46107;53.356;-1.524;2023-04-22T02:17:57;40;38;
60245;PMS5003;46107;53.356;-1.524;2023-04-22T02:20:24;50;44;
60245;PMS5003;46107;53.356;-1.524;2023-04-22T02:22:52;41;36;
60245;PMS5003;46107;53.356;-1.524;2023-04-22T02:25:20;40;35;
60245;PMS5003;46107;53.356;-1.524;2023-04-22T02:27:49;44;41;
60245;PMS5003;46107;53.356;-1.524;2023-04-22T02:30:16;43;35;
60245;PMS5003;46107;53.356;-1.524;2023-04-22T02:32:44;39;34;
60245;PMS5003;46107;53.356;-1.524;2023-04-22T02:35:11;42;36;
60245;PMS5003;46107;53.356;-1.524;2023-04-22T02:37:39;42;34;
60245;PMS5003;46107;53.356;-1.524;2023-04-22T02:40:06;29;28;
60245;PMS5003;46107;53.356;-1.524;2023-04-22T02:42:34;33;28;
60245;PMS5003;46107;53.356;-1.524;2023-04-22T02:45:02;26;23;
60245;PMS5003;46107;53.356;-1.524;2023-04-22T02:47:30;28;26;
60245;PMS5003;46107;53.356;-1.524;2023-04-22T02:49:58;26;26;
60245;PMS5003;46107;53.356;-1.524;2023-04-22T02:52:26;31;27;
60245;PMS5003;46107;53.356;-1.524;2023-04-22T02:54:58;26;23;
60245;PMS5003;46107;53.356;-1.524;2023-04-22T02:57:25;22;22;
60245;PMS5003;46107;53.356;-1.524;2023-04-22T02:59:57;20;17;
60245;PMS5003;46107;53.356;-1.524;2023-04-22T03:02:25;22;18;
60245;PMS5003;46107;53.356;-1.524;2023-04-22T03:04:58;21;16;
60245;PMS5003;46107;53.356;-1.524;2023-04-22T03:07:26;16;16;
60245;PMS5003;46107;53.356;-1.524;2023-04-22T03:09:58;20;16;
60245;PMS5003;46107;53.356;-1.524;2023-04-22T03:12:25;22;20;
60245;PMS5003;46107;53.356;-1.524;2023-04-22T03:14:58;17;16;
60245;PMS5003;46107;53.356;-1.524;2023-04-22T03:17:25;19;18;
60245;PMS5003;46107;53.356;-1.524;2023-04-22T03:19:58;21;19;
60245;PMS5003;46107;53.356;-1.524;2023-04-22T03:22:26;24;19;
60245;PMS5003;46107;53.356;-1.524;2023-04-22T03:24:54;20;19;
60245;PMS5003;46107;53.356;-1.524;2023-04-22T03:27:21;18;17;
60245;PMS5003;46107;53.356;-1.524;2023-04-22T03:29:48;14;14;
60245;PMS5003;46107;53.356;-1.524;2023-04-22T03:32:16;14;14;
60245;PMS5003;46107;53.356;-1.524;2023-04-22T03:34:44;17;16;
60245;PMS5003;46107;53.356;-1.524;2023-04-22T03:37:11;18;15;
60245;PMS5003;46107;53.356;-1.524;2023-04-22T03:39:38;16;15;
60245;PMS5003;46107;53.356;-1.524;2023-04-22T03:42:06;18;14;
60245;PMS5003;46107;53.356;-1.524;2023-04-22T03:44:33;16;11;
60245;PMS5003;46107;53.356;-1.524;2023-04-22T03:47:01;17;17;
60245;PMS5003;46107;53.356;-1.524;2023-04-22T03:49:29;16;15;
60245;PMS5003;46107;53.356;-1.524;2023-04-22T03:51:56;15;14;
60245;PMS5003;46107;53.356;-1.524;2023-04-22T03:54:23;16;12;
60245;PMS5003;46107;53.356;-1.524;2023-04-22T03:56:52;18;15;
60245;PMS5003;46107;53.356;-1.524;2023-04-22T03:59:21;13;11;
60245;PMS5003;46107;53.356;-1.524;2023-04-22T04:01:50;13;12;
60245;PMS5003;46107;53.356;-1.524;2023-04-22T04:04:18;15;15;
60245;PMS5003;46107;53.356;-1.524;2023-04-22T04:06:45;16;13;
60245;PMS5003;46107;53.356;-1.524;2023-04-22T04:09:13;15;13;
60245;PMS5003;46107;53.356;-1.524;2023-04-22T04:11:40;15;14;
60245;PMS5003;46107;53.356;-1.524;2023-04-22T04:14:08;16;15;
60245;PMS5003;46107;53.356;-1.524;2023-04-22T04:16:35;13;11;
60245;PMS5003;46107;53.356;-1.524;2023-04-22T04:19:04;13;13;
60245;PMS5003;46107;53.356;-1.524;2023-04-22T04:21:31;17;16;
60245;PMS5003;46107;53.356;-1.524;2023-04-22T04:23:59;15;13;
60245;PMS5003;46107;53.356;-1.524;2023-04-22T04:26:26;14;14;
60245;PMS5003;46107;53.356;-1.524;2023-04-22T04:28:54;14;12;
60245;PMS5003;46107;53.356;-1.524;2023-04-22T04:31:22;15;12;
60245;PMS5003;46107;53.356;-1.524;2023-04-22T04:33:50;16;14;
60245;PMS5003;46107;53.356;-1.524;2023-04-22T04:36:17;16;15;
60245;PMS5003;46107;53.356;-1.524;2023-04-22T04:38:45;12;11;
60245;PMS5003;46107;53.356;-1.524;2023-04-22T04:41:12;14;13;
60245;PMS5003;46107;53.356;-1.524;2023-04-22T04:43:40;13;12;
60245;PMS5003;46107;53.356;-1.524;2023-04-22T04:46:07;12;11;
60245;PMS5003;46107;53.356;-1.524;2023-04-22T04:48:35;12;12;
60245;PMS5003;46107;53.356;-1.524;2023-04-22T04:51:03;13;10;
60245;PMS5003;46107;53.356;-1.524;2023-04-22T04:53:31;14;13;
60245;PMS5003;46107;53.356;-1.524;2023-04-22T04:55:59;12;11;
60245;PMS5003;46107;53.356;-1.524;2023-04-22T04:58:26;13;11;
60245;PMS5003;46107;53.356;-1.524;2023-04-22T05:00:54;12;12;
60245;PMS5003;46107;53.356;-1.524;2023-04-22T05:03:21;16;15;
60245;PMS5003;46107;53.356;-1.524;2023-04-22T05:05:49;13;13;
60245;PMS5003;46107;53.356;-1.524;2023-04-22T05:08:18;15;15;
60245;PMS5003;46107;53.356;-1.524;2023-04-22T05:10:45;16;15;
60245;PMS5003;46107;53.356;-1.524;2023-04-22T05:13:13;16;14;
60245;PMS5003;46107;53.356;-1.524;2023-04-22T05:15:40;15;13;
60245;PMS5003;46107;53.356;-1.524;2023-04-22T05:18:08;18;14;
60245;PMS5003;46107;53.356;-1.524;2023-04-22T05:20:35;12;12;
60245;PMS5003;46107;53.356;-1.524;2023-04-22T05:23:03;15;14;
60245;PMS5003;46107;53.356;-1.524;2023-04-22T05:25:30;14;14;
60245;PMS5003;46107;53.356;-1.524;2023-04-22T05:27:58;18;17;
60245;PMS5003;46107;53.356;-1.524;2023-04-22T05:30:25;17;15;
60245;PMS5003;46107;53.356;-1.524;2023-04-22T05:32:58;14;14;
60245;PMS5003;46107;53.356;-1.524;2023-04-22T05:35:25;16;15;
60245;PMS5003;46107;53.356;-1.524;2023-04-22T05:37:57;18;14;
60245;PMS5003;46107;53.356;-1.524;2023-04-22T05:40:24;17;16;
60245;PMS5003;46107;53.356;-1.524;2023-04-22T05:42:53;17;15;
60245;PMS5003;46107;53.356;-1.524;2023-04-22T05:45:22;22;19;
60245;PMS5003;46107;53.356;-1.524;2023-04-22T05:47:49;19;17;
60245;PMS5003;46107;53.356;-1.524;2023-04-22T05:50:17;17;16;
60245;PMS5003;46107;53.356;-1.524;2023-04-22T05:52:45;19;17;
60245;PMS5003;46107;53.356;-1.524;2023-04-22T05:55:12;16;16;
60245;PMS5003;46107;53.356;-1.524;2023-04-22T05:57:39;20;19;
60245;PMS5003;46107;53.356;-1.524;2023-04-22T06:00:07;22;20;
60245;PMS5003;46107;53.356;-1.524;2023-04-22T06:02:36;20;20;
60245;PMS5003;46107;53.356;-1.524;2023-04-22T06:05:04;17;16;
60245;PMS5003;46107;53.356;-1.524;2023-04-22T06:07:31;23;23;
60245;PMS5003;46107;53.356;-1.524;2023-04-22T06:09:59;17;17;
60245;PMS5003;46107;53.356;-1.524;2023-04-22T06:12:26;20;19;
60245;PMS5003;46107;53.356;-1.524;2023-04-22T06:14:54;18;17;
60245;PMS5003;46107;53.356;-1.524;2023-04-22T06:17:22;24;24;
60245;PMS5003;46107;53.356;-1.524;2023-04-22T06:19:49;22;20;
60245;PMS5003;46107;53.356;-1.524;2023-04-22T06:22:16;23;20;
60245;PMS5003;46107;53.356;-1.524;2023-04-22T06:24:44;26;23;
60245;PMS5003;46107;53.356;-1.524;2023-04-22T06:27:12;24;23;
60245;PMS5003;46107;53.356;-1.524;2023-04-22T06:29:40;20;19;
60245;PMS5003;46107;53.356;-1.524;2023-04-22T06:32:07;21;20;
60245;PMS5003;46107;53.356;-1.524;2023-04-22T06:34:35;19;19;
60245;PMS5003;46107;53.356;-1.524;2023-04-22T06:37:02;18;16;
60245;PMS5003;46107;53.356;-1.524;2023-04-22T06:39:29;25;21;
60245;PMS5003;46107;53.356;-1.524;2023-04-22T06:41:57;24;20;
60245;PMS5003;46107;53.356;-1.524;2023-04-22T06:44:24;20;18;
60245;PMS5003;46107;53.356;-1.524;2023-04-22T06:46:53;19;18;
60245;PMS5003;46107;53.356;-1.524;2023-04-22T06:49:21;17;15;
60245;PMS5003;46107;53.356;-1.524;2023-04-22T06:51:49;11;11;
60245;PMS5003;46107;53.356;-1.524;2023-04-22T06:54:17;13;11;
60245;PMS5003;46107;53.356;-1.524;2023-04-22T06:56:45;7;6;
60245;PMS5003;46107;53.356;-1.524;2023-04-22T06:59:12;8;8;
60245;PMS5003;46107;53.356;-1.524;2023-04-22T07:01:39;6;6;
60245;PMS5003;46107;53.356;-1.524;2023-04-22T07:04:07;6;5;
60245;PMS5003;46107;53.356;-1.524;2023-04-22T07:06:34;6;5;
60245;PMS5003;46107;53.356;-1.524;2023-04-22T07:09:02;4;3;
60245;PMS5003;46107;53.356;-1.524;2023-04-22T07:11:29;5;5;
60245;PMS5003;46107;53.356;-1.524;2023-04-22T07:13:57;6;6;
60245;PMS5003;46107;53.356;-1.524;2023-04-22T07:16:25;5;4;
60245;PMS5003;46107;53.356;-1.524;2023-04-22T07:18:54;16;14;
60245;PMS5003;46107;53.356;-1.524;2023-04-22T07:21:21;15;15;
60245;PMS5003;46107;53.356;-1.524;2023-04-22T07:23:49;19;18;
60245;PMS5003;46107;53.356;-1.524;2023-04-22T07:26:17;13;13;
60245;PMS5003;46107;53.356;-1.524;2023-04-22T07:28:45;24;21;
60245;PMS5003;46107;53.356;-1.524;2023-04-22T07:31:13;23;19;
60245;PMS5003;46107;53.356;-1.524;2023-04-22T07:33:40;19;17;
60245;PMS5003;46107;53.356;-1.524;2023-04-22T07:36:08;20;19;
60245;PMS5003;46107;53.356;-1.524;2023-04-22T07:38:36;22;21;
60245;PMS5003;46107;53.356;-1.524;2023-04-22T07:41:03;28;25;
60245;PMS5003;46107;53.356;-1.524;2023-04-22T07:43:30;35;27;
60245;PMS5003;46107;53.356;-1.524;2023-04-22T07:45:57;33;31;
60245;PMS5003;46107;53.356;-1.524;2023-04-22T07:48:25;39;33;
60245;PMS5003;46107;53.356;-1.524;2023-04-22T07:50:52;66;52;
60245;PMS5003;46107;53.356;-1.524;2023-04-22T07:53:21;64;55;
60245;PMS5003;46107;53.356;-1.524;2023-04-22T07:55:48;60;51;
60245;PMS5003;46107;53.356;-1.524;2023-04-22T07:58:16;51;44;
60245;PMS5003;46107;53.356;-1.524;2023-04-22T08:00:44;54;46;
60245;PMS5003;46107;53.356;-1.524;2023-04-22T08:03:11;53;45;
60245;PMS5003;46107;53.356;-1.524;2023-04-22T08:05:39;52;45;
60245;PMS5003;46107;53.356;-1.524;2023-04-22T08:08:07;59;47;
60245;PMS5003;46107;53.356;-1.524;2023-04-22T08:10:34;59;49;
60245;PMS5003;46107;53.356;-1.524;2023-04-22T08:13:02;62;53;
60245;PMS5003;46107;53.356;-1.524;2023-04-22T08:15:30;54;44;
60245;PMS5003;46107;53.356;-1.524;2023-04-22T08:17:57;57;46;
60245;PMS5003;46107;53.356;-1.524;2023-04-22T08:20:25;53;49;
60245;PMS5003;46107;53.356;-1.524;2023-04-22T08:22:52;54;47;
60245;PMS5003;46107;53.356;-1.524;2023-04-22T08:25:25;53;47;
60245;PMS5003;46107;53.356;-1.524;2023-04-22T08:27:59;64;52;
60245;PMS5003;46107;53.356;-1.524;2023-04-22T08:30:27;56;47;
60245;PMS5003;46107;53.356;-1.524;2023-04-22T08:32:54;54;46;
60245;PMS5003;46107;53.356;-1.524;2023-04-22T08:35:22;51;45;
60245;PMS5003;46107;53.356;-1.524;2023-04-22T08:37:49;41;37;
60245;PMS5003;46107;53.356;-1.524;2023-04-22T08:40:16;62;49;
60245;PMS5003;46107;53.356;-1.524;2023-04-22T08:42:44;57;48;
60245;PMS5003;46107;53.356;-1.524;2023-04-22T08:45:12;47;41;
60245;PMS5003;46107;53.356;-1.524;2023-04-22T08:47:41;48;44;
60245;PMS5003;46107;53.356;-1.524;2023-04-22T08:50:09;52;50;
60245;PMS5003;46107;53.356;-1.524;2023-04-22T08:52:37;49;45;
60245;PMS5003;46107;53.356;-1.524;2023-04-22T08:55:05;54;45;
60245;PMS5003;46107;53.356;-1.524;2023-04-22T08:57:34;51;45;
60245;PMS5003;46107;53.356;-1.524;2023-04-22T09:00:04;55;46;
60245;PMS5003;46107;53.356;-1.524;2023-04-22T09:02:33;50;47;
60245;PMS5003;46107;53.356;-1.524;2023-04-22T09:05:05;49;45;
60245;PMS5003;46107;53.356;-1.524;2023-04-22T09:07:34;52;45;
60245;PMS5003;46107;53.356;-1.524;2023-04-22T09:10:02;59;46;
60245;PMS5003;46107;53.356;-1.524;2023-04-22T09:12:31;52;42;
60245;PMS5003;46107;53.356;-1.524;2023-04-22T09:14:58;48;43;
60245;PMS5003;46107;53.356;-1.524;2023-04-22T09:17:29;45;37;
60245;PMS5003;46107;53.356;-1.524;2023-04-22T09:19:59;43;41;
60245;PMS5003;46107;53.356;-1.524;2023-04-22T09:22:27;38;35;
60245;PMS5003;46107;53.356;-1.524;2023-04-22T09:25:03;39;35;
60245;PMS5003;46107;53.356;-1.524;2023-04-22T09:27:31;50;37;
60245;PMS5003;46107;53.356;-1.524;2023-04-22T09:30:03;47;38;
60245;PMS5003;46107;53.356;-1.524;2023-04-22T09:32:35;39;36;
60245;PMS5003;46107;53.356;-1.524;2023-04-22T09:35:02;42;41;
60245;PMS5003;46107;53.356;-1.524;2023-04-22T09:37:29;34;33;
60245;PMS5003;46107;53.356;-1.524;2023-04-22T09:39:57;49;44;
60245;PMS5003;46107;53.356;-1.524;2023-04-22T09:42:24;40;35;
60245;PMS5003;46107;53.356;-1.524;2023-04-22T09:44:52;39;34;
60245;PMS5003;46107;53.356;-1.524;2023-04-22T09:47:21;36;28;
60245;PMS5003;46107;53.356;-1.524;2023-04-22T09:49:49;41;35;
60245;PMS5003;46107;53.356;-1.524;2023-04-22T09:52:20;31;29;
60245;PMS5003;46107;53.356;-1.524;2023-04-22T09:54:48;37;34;
60245;PMS5003;46107;53.356;-1.524;2023-04-22T09:57:15;35;30;
60245;PMS5003;46107;53.356;-1.524;2023-04-22T09:59:43;32;30;
60245;PMS5003;46107;53.356;-1.524;2023-04-22T10:02:10;31;30;
60245;PMS5003;46107;53.356;-1.524;2023-04-22T10:04:38;36;31;
60245;PMS5003;46107;53.356;-1.524;2023-04-22T10:07:07;35;30;
60245;PMS5003;46107;53.356;-1.524;2023-04-22T10:09:34;36;27;
60245;PMS5003;46107;53.356;-1.524;2023-04-22T10:12:02;43;35;
60245;PMS5003;46107;53.356;-1.524;2023-04-22T10:14:31;42;30;
60245;PMS5003;46107;53.356;-1.524;2023-04-22T10:16:59;40;33;
60245;PMS5003;46107;53.356;-1.524;2023-04-22T10:19:28;32;30;
60245;PMS5003;46107;53.356;-1.524;2023-04-22T10:21:59;40;36;
60245;PMS5003;46107;53.356;-1.524;2023-04-22T10:24:33;40;34;
60245;PMS5003;46107;53.356;-1.524;2023-04-22T10:27:02;45;39;
60245;PMS5003;46107;53.356;-1.524;2023-04-22T10:29:34;47;42;
60245;PMS5003;46107;53.356;-1.524;2023-04-22T10:32:04;37;29;
60245;PMS5003;46107;53.356;-1.524;2023-04-22T10:34:48;33;32;
60245;PMS5003;46107;53.356;-1.524;2023-04-22T10:37:32;43;38;
60245;PMS5003;46107;53.356;-1.524;2023-04-22T10:40:08;37;35;
60245;PMS5003;46107;53.356;-1.524;2023-04-22T10:42:39;45;39;
60245;PMS5003;46107;53.356;-1.524;2023-04-22T10:45:11;48;40;
60245;PMS5003;46107;53.356;-1.524;2023-04-22T10:47:40;39;31;
60245;PMS5003;46107;53.356;-1.524;2023-04-22T10:50:08;41;36;
60245;PMS5003;46107;53.356;-1.524;2023-04-22T10:52:47;40;36;
60245;PMS5003;46107;53.356;-1.524;2023-04-22T10:55:18;45;38;
60245;PMS5003;46107;53.356;-1.524;2023-04-22T10:57:46;43;36;
60245;PMS5003;46107;53.356;-1.524;2023-04-22T11:00:16;34;32;
60245;PMS5003;46107;53.356;-1.524;2023-04-22T11:02:51;45;43;
60245;PMS5003;46107;53.356;-1.524;2023-04-22T11:05:21;43;40;
60245;PMS5003;46107;53.356;-1.524;2023-04-22T11:07:50;43;39;
60245;PMS5003;46107;53.356;-1.524;2023-04-22T11:10:35;40;36;
60245;PMS5003;46107;53.356;-1.524;2023-04-22T11:13:04;45;41;
60245;PMS5003;46107;53.356;-1.524;2023-04-22T11:15:34;43;40;
60245;PMS5003;46107;53.356;-1.524;2023-04-22T11:18:02;41;37;
60245;PMS5003;46107;53.356;-1.524;2023-04-22T11:20:33;35;32;
60245;PMS5003;46107;53.356;-1.524;2023-04-22T11:23:01;40;36;
60245;PMS5003;46107;53.356;-1.524;2023-04-22T11:25:29;40;33;
60245;PMS5003;46107;53.356;-1.524;2023-04-22T11:27:56;40;36;
60245;PMS5003;46107;53.356;-1.524;2023-04-22T11:30:25;43;39;
60245;PMS5003;46107;53.356;-1.524;2023-04-22T11:32:55;38;34;
60245;PMS5003;46107;53.356;-1.524;2023-04-22T11:35:24;38;36;
60245;PMS5003;46107;53.356;-1.524;2023-04-22T11:37:54;42;39;
60245;PMS5003;46107;53.356;-1.524;2023-04-22T11:40:25;37;33;
60245;PMS5003;46107;53.356;-1.524;2023-04-22T11:42:54;30;28;
60245;PMS5003;46107;53.356;-1.524;2023-04-22T11:45:22;36;33;
60245;PMS5003;46107;53.356;-1.524;2023-04-22T11:47:50;34;33;
60245;PMS5003;46107;53.356;-1.524;2023-04-22T11:50:20;34;32;
60245;PMS5003;46107;53.356;-1.524;2023-04-22T11:52:51;34;32;
60245;PMS5003;46107;53.356;-1.524;2023-04-22T11:55:21;37;34;
60245;PMS5003;46107;53.356;-1.524;2023-04-22T11:57:51;37;36;
60245;PMS5003;46107;53.356;-1.524;2023-04-22T12:00:22;44;38;
60245;PMS5003;46107;53.356;-1.524;2023-04-22T12:02:55;44;39;
60245;PMS5003;46107;53.356;-1.524;2023-04-22T12:05:33;41;33;
60245;PMS5003;46107;53.356;-1.524;2023-04-22T12:08:05;38;32;
60245;PMS5003;46107;53.356;-1.524;2023-04-22T12:10:38;32;29;
60245;PMS5003;46107;53.356;-1.524;2023-04-22T12:13:07;37;33;
60245;PMS5003;46107;53.356;-1.524;2023-04-22T12:15:37;37;34;
60245;PMS5003;46107;53.356;-1.524;2023-04-22T12:18:06;32;31;
60245;PMS5003;46107;53.356;-1.524;2023-04-22T12:20:34;33;27;
60245;PMS5003;46107;53.356;-1.524;2023-04-22T12:23:03;29;29;
60245;PMS5003;46107;53.356;-1.524;2023-04-22T12:25:31;31;31;
60245;PMS5003;46107;53.356;-1.524;2023-04-22T12:27:58;32;26;
60245;PMS5003;46107;53.356;-1.524;2023-04-22T12:30:26;35;32;
60245;PMS5003;46107;53.356;-1.524;2023-04-22T12:32:59;32;29;
60245;PMS5003;46107;53.356;-1.524;2023-04-22T12:35:26;36;31;
60245;PMS5003;46107;53.356;-1.524;2023-04-22T12:37:54;35;32;
60245;PMS5003;46107;53.356;-1.524;2023-04-22T12:40:21;37;34;
60245;PMS5003;46107;53.356;-1.524;2023-04-22T12:42:49;35;33;
60245;PMS5003;46107;53.356;-1.524;2023-04-22T12:45:16;38;35;
60245;PMS5003;46107;53.356;-1.524;2023-04-22T12:47:43;33;29;
60245;PMS5003;46107;53.356;-1.524;2023-04-22T12:50:11;39;33;
60245;PMS5003;46107;53.356;-1.524;2023-04-22T12:52:38;41;32;
60245;PMS5003;46107;53.356;-1.524;2023-04-22T12:55:06;72;60;
60245;PMS5003;46107;53.356;-1.524;2023-04-22T12:57:34;60;52;
60245;PMS5003;46107;53.356;-1.524;2023-04-22T13:00:02;103;87;
60245;PMS5003;46107;53.356;-1.524;2023-04-22T13:02:30;47;41;
60245;PMS5003;46107;53.356;-1.524;2023-04-22T13:04:58;46;42;
60245;PMS5003;46107;53.356;-1.524;2023-04-22T13:07:25;37;34;
60245;PMS5003;46107;53.356;-1.524;2023-04-22T13:09:52;35;31;
60245;PMS5003;46107;53.356;-1.524;2023-04-22T13:12:21;37;33;
60245;PMS5003;46107;53.356;-1.524;2023-04-22T13:14:49;38;33;
60245;PMS5003;46107;53.356;-1.524;2023-04-22T13:17:16;32;31;
60245;PMS5003;46107;53.356;-1.524;2023-04-22T13:19:44;36;34;
60245;PMS5003;46107;53.356;-1.524;2023-04-22T13:22:13;37;34;
60245;PMS5003;46107;53.356;-1.524;2023-04-22T13:24:41;33;33;
60245;PMS5003;46107;53.356;-1.524;2023-04-22T13:27:08;38;36;
60245;PMS5003;46107;53.356;-1.524;2023-04-22T13:29:37;45;38;
60245;PMS5003;46107;53.356;-1.524;2023-04-22T13:32:04;43;42;
60245;PMS5003;46107;53.356;-1.524;2023-04-22T13:34:33;48;40;
60245;PMS5003;46107;53.356;-1.524;2023-04-22T13:37:00;95;83;
60245;PMS5003;46107;53.356;-1.524;2023-04-22T13:39:28;35;33;
60245;PMS5003;46107;53.356;-1.524;2023-04-22T13:41:56;69;60;
60245;PMS5003;46107;53.356;-1.524;2023-04-22T13:44:25;52;50;
60245;PMS5003;46107;53.356;-1.524;2023-04-22T13:46:53;47;39;
60245;PMS5003;46107;53.356;-1.524;2023-04-22T13:49:21;39;33;
60245;PMS5003;46107;53.356;-1.524;2023-04-22T13:51:48;40;34;
60245;PMS5003;46107;53.356;-1.524;2023-04-22T13:54:16;34;32;
60245;PMS5003;46107;53.356;-1.524;2023-04-22T13:56:44;40;37;
60245;PMS5003;46107;53.356;-1.524;2023-04-22T13:59:11;32;29;
60245;PMS5003;46107;53.356;-1.524;2023-04-22T14:01:39;26;24;
60245;PMS5003;46107;53.356;-1.524;2023-04-22T14:04:07;34;31;
60245;PMS5003;46107;53.356;-1.524;2023-04-22T14:06:35;27;24;
60245;PMS5003;46107;53.356;-1.524;2023-04-22T14:09:03;32;29;
60245;PMS5003;46107;53.356;-1.524;2023-04-22T14:11:31;32;27;
60245;PMS5003;46107;53.356;-1.524;2023-04-22T14:13:58;26;24;
60245;PMS5003;46107;53.356;-1.524;2023-04-22T14:16:26;30;25;
60245;PMS5003;46107;53.356;-1.524;2023-04-22T14:18:59;24;23;
60245;PMS5003;46107;53.356;-1.524;2023-04-22T14:21:27;27;20;
60245;PMS5003;46107;53.356;-1.524;2023-04-22T14:23:55;21;19;
60245;PMS5003;46107;53.356;-1.524;2023-04-22T14:26:23;24;23;
60245;PMS5003;46107;53.356;-1.524;2023-04-22T14:28:51;24;21;
60245;PMS5003;46107;53.356;-1.524;2023-04-22T14:31:18;23;21;
60245;PMS5003;46107;53.356;-1.524;2023-04-22T14:33:45;20;19;
60245;PMS5003;46107;53.356;-1.524;2023-04-22T14:36:13;17;15;
60245;PMS5003;46107;53.356;-1.524;2023-04-22T14:38:41;15;14;
60245;PMS5003;46107;53.356;-1.524;2023-04-22T14:41:09;16;16;
60245;PMS5003;46107;53.356;-1.524;2023-04-22T14:43:37;21;21;
60245;PMS5003;46107;53.356;-1.524;2023-04-22T14:46:05;17;15;
60245;PMS5003;46107;53.356;-1.524;2023-04-22T14:48:33;20;18;
60245;PMS5003;46107;53.356;-1.524;2023-04-22T14:51:00;28;21;
60245;PMS5003;46107;53.356;-1.524;2023-04-22T14:53:28;19;19;
60245;PMS5003;46107;53.356;-1.524;2023-04-22T14:55:56;26;23;
60245;PMS5003;46107;53.356;-1.524;2023-04-22T14:58:24;24;23;
60245;PMS5003;46107;53.356;-1.524;2023-04-22T15:00:52;25;21;
60245;PMS5003;46107;53.356;-1.524;2023-04-22T15:03:21;27;26;
60245;PMS5003;46107;53.356;-1.524;2023-04-22T15:05:48;52;45;
60245;PMS5003;46107;53.356;-1.524;2023-04-22T15:08:16;37;35;
60245;PMS5003;46107;53.356;-1.524;2023-04-22T15:10:44;29;25;
60245;PMS5003;46107;53.356;-1.524;2023-04-22T15:13:12;42;34;
60245;PMS5003;46107;53.356;-1.524;2023-04-22T15:15:40;23;19;
60245;PMS5003;46107;53.356;-1.524;2023-04-22T15:18:08;25;22;
60245;PMS5003;46107;53.356;-1.524;2023-04-22T15:20:35;23;22;
60245;PMS5003;46107;53.356;-1.524;2023-04-22T15:23:02;24;24;
60245;PMS5003;46107;53.356;-1.524;2023-04-22T15:25:30;26;24;
60245;PMS5003;46107;53.356;-1.524;2023-04-22T15:27:58;29;25;
60245;PMS5003;46107;53.356;-1.524;2023-04-22T15:30:26;32;26;
60245;PMS5003;46107;53.356;-1.524;2023-04-22T15:32:54;20;18;
60245;PMS5003;46107;53.356;-1.524;2023-04-22T15:35:22;25;23;
60245;PMS5003;46107;53.356;-1.524;2023-04-22T15:37:50;20;18;
60245;PMS5003;46107;53.356;-1.524;2023-04-22T15:40:17;24;21;
60245;PMS5003;46107;53.356;-1.524;2023-04-22T15:42:44;19;18;
60245;PMS5003;46107;53.356;-1.524;2023-04-22T15:45:12;18;17;
60245;PMS5003;46107;53.356;-1.524;2023-04-22T15:47:39;20;18;
60245;PMS5003;46107;53.356;-1.524;2023-04-22T15:50:08;21;19;
60245;PMS5003;46107;53.356;-1.524;2023-04-22T15:52:37;22;18;
60245;PMS5003;46107;53.356;-1.524;2023-04-22T15:55:05;19;16;
60245;PMS5003;46107;53.356;-1.524;2023-04-22T15:57:33;19;18;
60245;PMS5003;46107;53.356;-1.524;2023-04-22T16:00:00;18;18;
60245;PMS5003;46107;53.356;-1.524;2023-04-22T16:02:29;22;17;
60245;PMS5003;46107;53.356;-1.524;2023-04-22T16:04:58;19;13;
60245;PMS5003;46107;53.356;-1.524;2023-04-22T16:07:26;20;17;
60245;PMS5003;46107;53.356;-1.524;2023-04-22T16:09:54;21;20;